Time;durP1;ratioP1;P1;durP2;ratioP2;P2;SDS_P1;SDS_P2;PMS_P1;PMS_P2;Temp;Humidity;BMP_temperature;BMP_pressure;BME280_temperature;BME280_humidity;BME280_pressure;Samples;Min_cycle;Max_cycle;Signal;HPM_P1;HPM_P2
2023/01/13 00:01:08;;;;;;;5.38;1.63;;;;;;;;;;2077337;28;20025;-71
2023/01/13 00:02:27;;;;;;;;;;;;;;;;;;2080699;28;20046;-70
2023/01/13 00:03:46;;;;;;;5.53;2.30;;;;;;;;;;2080300;28;19909;-70
2023/01/13 00:05:05;;;;;;;7.03;2.30;;;;;;;;;;2077091;28;20112;-70
2023/01/13 00:06:24;;;;;;;5.85;2.00;;;;;;;;;;2079577;28;20042;-71
2023/01/13 00:07:45;;;;;;;6.65;2.20;;;;;;;;;;2079107;28;20037;-71
2023/01/13 00:09:04;;;;;;;8.27;2.20;;;;;;;;;;2080279;28;20030;-71
2023/01/13 00:10:23;;;;;;;3.85;1.85;;;;;;;;;;2079775;28;20021;-71
2023/01/13 00:11:42;;;;;;;10.48;2.03;;;;;;;;;;2079784;28;20030;-71
2023/01/13 00:13:02;;;;;;;10.38;2.00;;;;;;;;;;2081632;28;20033;-71
2023/01/13 00:14:21;;;;;;;5.70;1.80;;;;;;;;;;2080383;28;20037;-71
2023/01/13 00:15:39;;;;;;;7.78;2.13;;;;;;;;;;2078844;28;20029;-70
2023/01/13 00:16:58;;;;;;;7.65;1.80;;;;;;;;;;2079968;28;20034;-71
2023/01/13 00:18:17;;;;;;;3.38;1.80;;;;;;;;;;2080545;28;20092;-71
2023/01/13 00:19:36;;;;;;;8.27;2.25;;;;;;;;;;2081210;28;20030;-71
2023/01/13 00:20:58;;;;;;;11.02;2.17;;;;;;;;;;2076403;28;20037;-71
2023/01/13 00:22:17;;;;;;;5.53;1.75;;;;;;;;;;2077826;28;20040;-70
2023/01/13 00:23:36;;;;;;;6.60;1.98;;;;;;;;;;2078244;28;20029;-70
2023/01/13 00:24:57;;;;;;;6.07;1.85;;;;;;;;;;2079198;28;20038;-70
2023/01/13 00:26:20;;;;;;;5.75;1.90;;;;;;;;;;2079013;28;20072;-70
2023/01/13 00:27:39;;;;;;;8.70;2.10;;;;;;;;;;2077612;28;20033;-70
2023/01/13 00:28:58;;;;;;;7.00;2.20;;;;;;;;;;2078766;28;20052;-71
2023/01/13 00:30:17;;;;;;;7.75;2.25;;;;;;;;;;2076886;28;20133;-70
2023/01/13 00:31:36;;;;;;;8.85;2.42;;;;;;;;;;2080387;28;20514;-71
2023/01/13 00:32:55;;;;;;;8.60;2.17;;;;;;;;;;2080533;28;20037;-71
2023/01/13 00:34:14;;;;;;;8.52;2.22;;;;;;;;;;2079556;28;20030;-71
2023/01/13 00:35:33;;;;;;;6.15;2.30;;;;;;;;;;2078801;28;20096;-70
2023/01/13 00:36:52;;;;;;;6.97;2.47;;;;;;;;;;2079399;28;20051;-71
2023/01/13 00:38:11;;;;;;;5.95;2.00;;;;;;;;;;2079535;28;20475;-71
2023/01/13 00:39:30;;;;;;;4.40;1.70;;;;;;;;;;2079787;28;20025;-71
2023/01/13 00:40:56;;;;;;;5.32;2.53;;;;;;;;;;2080853;28;20026;-70
2023/01/13 00:43:53;;;;;;;6.75;2.15;;;;;;;;;;2080667;28;20029;-71
2023/01/13 00:45:12;;;;;;;7.88;2.50;;;;;;;;;;2080624;28;20108;-70
2023/01/13 00:46:31;;;;;;;7.18;2.35;;;;;;;;;;2080112;28;20042;-70
2023/01/13 00:47:50;;;;;;;7.88;2.05;;;;;;;;;;2079589;28;20033;-70
2023/01/13 00:49:09;;;;;;;8.15;2.70;;;;;;;;;;2078816;28;20029;-70
2023/01/13 00:50:29;;;;;;;5.38;2.17;;;;;;;;;;2078865;28;20061;-71
2023/01/13 00:51:48;;;;;;;8.65;2.20;;;;;;;;;;2077787;28;20061;-71
2023/01/13 00:53:06;;;;;;;10.10;2.65;;;;;;;;;;2077984;28;20030;-70
2023/01/13 00:54:25;;;;;;;6.00;2.80;;;;;;;;;;2078589;28;20517;-70
2023/01/13 00:55:44;;;;;;;11.82;2.67;;;;;;;;;;2078249;28;20499;-70
2023/01/13 00:57:04;;;;;;;5.30;2.75;;;;;;;;;;2077010;28;20037;-70
2023/01/13 00:58:23;;;;;;;7.30;2.95;;;;;;;;;;2076776;28;20112;-70
2023/01/13 00:59:41;;;;;;;5.47;2.10;;;;;;;;;;2078897;28;20057;-69
2023/01/13 01:01:01;;;;;;;8.82;2.33;;;;;;;;;;2078270;28;20042;-71
2023/01/13 01:02:20;;;;;;;5.97;2.53;;;;;;;;;;2080070;28;20029;-71
2023/01/13 01:03:39;;;;;;;4.93;2.22;;;;;;;;;;2080315;28;20056;-71
2023/01/13 01:04:58;;;;;;;6.63;2.50;;;;;;;;;;2080417;28;20021;-71
2023/01/13 01:06:19;;;;;;;7.22;3.05;;;;;;;;;;2080355;28;20025;-71
2023/01/13 01:07:38;;;;;;;4.65;2.65;;;;;;;;;;2077332;28;20021;-70
2023/01/13 01:08:57;;;;;;;5.63;3.15;;;;;;;;;;2080036;28;20033;-71
2023/01/13 01:10:16;;;;;;;7.70;3.72;;;;;;;;;;2080199;28;20144;-70
2023/01/13 01:11:34;;;;;;;7.65;4.35;;;;;;;;;;2080767;28;20033;-70
2023/01/13 01:12:53;;;;;;;9.63;4.53;;;;;;;;;;2079780;28;20033;-70
2023/01/13 01:14:12;;;;;;;7.53;3.80;;;;;;;;;;2077334;28;20033;-70
2023/01/13 01:15:32;;;;;;;9.35;4.32;;;;;;;;;;2077863;28;20021;-71
2023/01/13 01:16:51;;;;;;;7.50;3.20;;;;;;;;;;2078494;28;20033;-71
2023/01/13 01:18:09;;;;;;;12.55;4.72;;;;;;;;;;2077916;28;20029;-71
2023/01/13 01:19:28;;;;;;;10.20;5.18;;;;;;;;;;2080028;28;20037;-71
2023/01/13 01:20:47;;;;;;;8.05;4.18;;;;;;;;;;2077749;28;20069;-71
2023/01/13 01:22:06;;;;;;;9.20;4.70;;;;;;;;;;2080268;28;20037;-71
2023/01/13 01:23:26;;;;;;;13.80;4.70;;;;;;;;;;2079669;28;20037;-71
2023/01/13 01:24:46;;;;;;;9.75;4.55;;;;;;;;;;2080706;28;20033;-70
2023/01/13 01:26:06;;;;;;;9.50;3.10;;;;;;;;;;2080976;28;20025;-71
2023/01/13 01:27:26;;;;;;;7.07;3.03;;;;;;;;;;2080451;28;20105;-71
2023/01/13 01:28:45;;;;;;;8.85;2.65;;;;;;;;;;2079721;28;20033;-71
2023/01/13 01:30:04;;;;;;;6.68;2.28;;;;;;;;;;2080991;28;20025;-71
2023/01/13 01:31:25;;;;;;;9.43;2.63;;;;;;;;;;2078826;28;20064;-71
2023/01/13 01:32:44;;;;;;;4.80;2.05;;;;;;;;;;2077566;28;20514;-71
2023/01/13 01:34:03;;;;;;;6.82;2.10;;;;;;;;;;2078417;28;20045;-71
2023/01/13 01:35:22;;;;;;;9.32;2.22;;;;;;;;;;2077938;28;20033;-71
2023/01/13 01:36:41;;;;;;;4.28;2.15;;;;;;;;;;2078299;28;20038;-70
2023/01/13 01:38:00;;;;;;;7.45;2.20;;;;;;;;;;2074650;28;20034;-70
2023/01/13 01:39:19;;;;;;;12.38;2.85;;;;;;;;;;2077330;28;20500;-71
2023/01/13 01:40:38;;;;;;;5.60;2.20;;;;;;;;;;2077930;28;20112;-71
2023/01/13 01:44:06;;;;;;;11.93;3.05;;;;;;;;;;2077117;28;20041;-71
2023/01/13 01:45:28;;;;;;;7.45;2.60;;;;;;;;;;2079462;28;20077;-70
2023/01/13 01:46:46;;;;;;;3.72;2.10;;;;;;;;;;2077338;28;20072;-71
2023/01/13 01:48:06;;;;;;;7.38;2.67;;;;;;;;;;2076716;28;20386;-70
2023/01/13 01:49:29;;;;;;;9.32;2.22;;;;;;;;;;2077468;28;20034;-71
2023/01/13 01:50:47;;;;;;;6.07;2.67;;;;;;;;;;2078375;28;20486;-70
2023/01/13 01:52:06;;;;;;;7.57;2.28;;;;;;;;;;2075467;28;20042;-71
2023/01/13 01:53:27;;;;;;;4.55;2.47;;;;;;;;;;2079941;28;20033;-71
2023/01/13 01:54:49;;;;;;;8.18;2.33;;;;;;;;;;2079875;28;20034;-71
2023/01/13 01:56:09;;;;;;;8.55;2.67;;;;;;;;;;2079701;28;20022;-70
2023/01/13 01:57:49;;;;;;;5.28;2.80;;;;;;;;;;2080851;28;20053;-71
2023/01/13 01:59:08;;;;;;;7.57;2.50;;;;;;;;;;2077837;28;20033;-71
2023/01/13 02:00:27;;;;;;;8.38;3.17;;;;;;;;;;2078004;28;20033;-70
2023/01/13 02:01:47;;;;;;;7.47;2.42;;;;;;;;;;2076484;28;20065;-71
2023/01/13 02:03:07;;;;;;;7.70;2.97;;;;;;;;;;2080019;28;20421;-71
2023/01/13 02:04:33;;;;;;;6.28;3.05;;;;;;;;;;2079970;28;20129;-70
2023/01/13 02:05:52;;;;;;;8.20;2.67;;;;;;;;;;2076046;28;20033;-70
2023/01/13 02:07:11;;;;;;;7.55;2.70;;;;;;;;;;2078070;28;20029;-72
2023/01/13 02:08:30;;;;;;;9.38;2.80;;;;;;;;;;2077727;28;20034;-71
2023/01/13 02:09:50;;;;;;;6.07;2.70;;;;;;;;;;2080439;28;20026;-71
2023/01/13 02:12:28;;;;;;;8.43;2.70;;;;;;;;;;2080766;28;20105;-71
2023/01/13 02:13:05;;;;;;;6.40;2.65;;;;;;;;;;2079120;28;20030;-71
2023/01/13 02:14:25;;;;;;;8.70;3.08;;;;;;;;;;2079962;28;20395;-71
2023/01/13 02:16:01;;;;;;;7.30;3.70;;;;;;;;;;2077506;28;20049;-70
2023/01/13 02:17:20;;;;;;;13.88;3.40;;;;;;;;;;2078808;28;20034;-71
2023/01/13 02:18:42;;;;;;;9.13;4.05;;;;;;;;;;2077840;28;20518;-71
2023/01/13 02:20:20;;;;;;;9.02;3.88;;;;;;;;;;2076310;28;20120;-70
2023/01/13 02:21:58;;;;;;;13.65;5.15;;;;;;;;;;2076845;28;20029;-70
2023/01/13 02:25:07;;;;;;;13.60;5.82;;;;;;;;;;2077894;28;20030;-71
2023/01/13 02:26:38;;;;;;;10.93;5.03;;;;;;;;;;2076599;28;20045;-71
2023/01/13 02:28:09;;;;;;;13.30;5.47;;;;;;;;;;2076289;28;20033;-71
2023/01/13 02:33:05;;;;;;;21.45;8.23;;;;;;;;;;2076100;28;20045;-71
2023/01/13 02:34:32;;;;;;;23.42;9.82;;;;;;;;;;2075754;28;20033;-71
2023/01/13 02:36:03;;;;;;;21.73;9.13;;;;;;;;;;2076392;28;20164;-71
2023/01/13 02:37:27;;;;;;;19.20;9.13;;;;;;;;;;2076175;28;20030;-70
2023/01/13 02:38:46;;;;;;;19.55;8.75;;;;;;;;;;2075450;28;20124;-71
2023/01/13 02:40:08;;;;;;;27.55;10.10;;;;;;;;;;2078175;28;20029;-72
2023/01/13 02:44:47;;;;;;;24.38;9.80;;;;;;;;;;2077516;28;20069;-71
2023/01/13 02:46:18;;;;;;;21.48;10.40;;;;;;;;;;2075262;28;20037;-71
2023/01/13 02:47:39;;;;;;;28.83;12.02;;;;;;;;;;2077605;28;20030;-71
2023/01/13 02:49:01;;;;;;;24.50;11.55;;;;;;;;;;2076756;28;20065;-71
2023/01/13 02:50:26;;;;;;;36.40;14.80;;;;;;;;;;2080115;28;20038;-72
2023/01/13 02:51:46;;;;;;;36.85;16.05;;;;;;;;;;2079569;28;20034;-71
2023/01/13 02:53:37;;;;;;;31.67;11.77;;;;;;;;;;2077733;28;20038;-71
2023/01/13 02:55:00;;;;;;;27.48;11.75;;;;;;;;;;2082114;28;20461;-72
2023/01/13 02:56:20;;;;;;;14.88;7.43;;;;;;;;;;2076600;28;20743;-71
2023/01/13 02:57:39;;;;;;;29.08;10.60;;;;;;;;;;2076976;28;20026;-70
2023/01/13 02:58:59;;;;;;;20.95;10.35;;;;;;;;;;2076144;28;20037;-71
2023/01/13 03:00:18;;;;;;;23.33;8.75;;;;;;;;;;2075721;28;20037;-71
2023/01/13 03:01:37;;;;;;;15.00;7.55;;;;;;;;;;2076269;28;20503;-71
2023/01/13 03:02:56;;;;;;;14.93;6.45;;;;;;;;;;2076715;28;20045;-71
2023/01/13 03:04:34;;;;;;;16.15;7.00;;;;;;;;;;2074310;28;20038;-71
2023/01/13 03:05:58;;;;;;;10.27;5.60;;;;;;;;;;2075092;28;20513;-70
2023/01/13 03:07:26;;;;;;;13.90;5.07;;;;;;;;;;2079910;28;20046;-71
2023/01/13 03:08:51;;;;;;;9.32;4.80;;;;;;;;;;2079263;28;20030;-71
2023/01/13 03:10:23;;;;;;;17.50;7.00;;;;;;;;;;2078513;28;20830;-71
2023/01/13 03:11:54;;;;;;;14.27;6.38;;;;;;;;;;2080066;28;20029;-71
2023/01/13 03:13:32;;;;;;;20.02;8.80;;;;;;;;;;2076795;28;20026;-71
2023/01/13 03:15:06;;;;;;;17.23;7.05;;;;;;;;;;2075464;28;20489;-71
2023/01/13 03:16:28;;;;;;;19.38;6.85;;;;;;;;;;2076963;28;20048;-71
2023/01/13 03:18:16;;;;;;;18.67;8.82;;;;;;;;;;2076052;28;20494;-71
2023/01/13 03:19:39;;;;;;;13.73;6.60;;;;;;;;;;2077235;28;20030;-71
2023/01/13 03:21:03;;;;;;;15.73;5.95;;;;;;;;;;2077059;28;20038;-71
2023/01/13 03:22:42;;;;;;;9.65;5.38;;;;;;;;;;2078107;28;20029;-71
2023/01/13 03:24:13;;;;;;;22.13;7.78;;;;;;;;;;2076658;28;20050;-71
2023/01/13 03:25:38;;;;;;;23.08;9.60;;;;;;;;;;2077800;28;20053;-71
2023/01/13 03:27:06;;;;;;;16.45;8.00;;;;;;;;;;2075436;28;20057;-71
2023/01/13 03:28:28;;;;;;;19.58;9.00;;;;;;;;;;2083492;28;20056;-71
2023/01/13 03:29:56;;;;;;;20.05;8.23;;;;;;;;;;2078602;28;20498;-71
2023/01/13 03:31:18;;;;;;;19.48;6.43;;;;;;;;;;2077623;28;20038;-70
2023/01/13 03:32:45;;;;;;;16.13;6.50;;;;;;;;;;2078774;28;20033;-71
2023/01/13 03:34:10;;;;;;;16.40;5.43;;;;;;;;;;2078079;28;20069;-71
2023/01/13 03:35:37;;;;;;;14.32;4.97;;;;;;;;;;2077305;28;20029;-70
2023/01/13 03:36:56;;;;;;;10.98;5.03;;;;;;;;;;2077702;28;20030;-71
2023/01/13 03:38:22;;;;;;;15.73;6.68;;;;;;;;;;2081743;28;20029;-71
2023/01/13 03:39:44;;;;;;;8.00;3.85;;;;;;;;;;2080526;28;20060;-70
2023/01/13 03:41:06;;;;;;;9.68;4.03;;;;;;;;;;2080286;28;20045;-71
2023/01/13 03:42:26;;;;;;;25.95;10.95;;;;;;;;;;2078609;28;20030;-70
2023/01/13 03:45:38;;;;;;;9.90;3.65;;;;;;;;;;2079585;28;20487;-71
2023/01/13 03:47:17;;;;;;;8.43;3.67;;;;;;;;;;2081219;28;20049;-71
2023/01/13 03:48:39;;;;;;;8.93;3.63;;;;;;;;;;2082303;28;20037;-71
2023/01/13 03:50:06;;;;;;;6.57;3.13;;;;;;;;;;2080028;28;20061;-71
2023/01/13 03:51:27;;;;;;;8.02;2.55;;;;;;;;;;2079372;28;20033;-71
2023/01/13 03:52:49;;;;;;;8.63;2.90;;;;;;;;;;2080154;28;20029;-70
2023/01/13 03:54:10;;;;;;;7.47;2.75;;;;;;;;;;2080672;28;20018;-71
2023/01/13 03:55:31;;;;;;;5.32;2.40;;;;;;;;;;2079726;28;20029;-71
2023/01/13 03:56:54;;;;;;;6.20;2.80;;;;;;;;;;2081675;28;20038;-70
2023/01/13 03:58:22;;;;;;;5.85;2.35;;;;;;;;;;2079144;28;20108;-71
2023/01/13 03:59:44;;;;;;;7.03;2.75;;;;;;;;;;2078986;28;20494;-71
2023/01/13 04:01:03;;;;;;;6.72;2.47;;;;;;;;;;2078687;28;20041;-70
2023/01/13 04:02:42;;;;;;;9.63;2.80;;;;;;;;;;2075024;28;20037;-71
2023/01/13 04:04:06;;;;;;;11.82;2.63;;;;;;;;;;2078219;28;20037;-71
2023/01/13 04:05:26;;;;;;;7.68;2.70;;;;;;;;;;2078474;28;20045;-70
2023/01/13 04:06:53;;;;;;;9.68;2.65;;;;;;;;;;2077361;28;20433;-70
2023/01/13 04:08:20;;;;;;;8.10;2.40;;;;;;;;;;2079856;28;20474;-71
2023/01/13 04:09:45;;;;;;;10.57;2.67;;;;;;;;;;2080681;28;20417;-71
2023/01/13 04:11:10;;;;;;;9.60;2.60;;;;;;;;;;2078127;28;20033;-70
2023/01/13 04:12:59;;;;;;;7.57;2.50;;;;;;;;;;2077575;28;20927;-71
2023/01/13 04:14:10;;;;;;;2.80;2.45;;;;;;;;;;2081327;28;20037;-71
2023/01/13 04:15:31;;;;;;;6.45;2.47;;;;;;;;;;2080556;28;20037;-70
2023/01/13 04:16:51;;;;;;;10.80;2.80;;;;;;;;;;2080127;28;20030;-71
2023/01/13 04:18:13;;;;;;;7.20;2.10;;;;;;;;;;2079599;28;20030;-71
2023/01/13 04:19:32;;;;;;;9.32;2.70;;;;;;;;;;2077205;28;20041;-70
2023/01/13 04:20:52;;;;;;;7.07;2.75;;;;;;;;;;2077696;28;21566;-70
2023/01/13 04:22:11;;;;;;;3.78;2.45;;;;;;;;;;2077756;28;20037;-71
2023/01/13 04:23:31;;;;;;;8.77;2.88;;;;;;;;;;2081606;28;20510;-70
2023/01/13 04:24:50;;;;;;;6.05;2.60;;;;;;;;;;2079466;28;20033;-71
2023/01/13 04:26:09;;;;;;;13.40;3.03;;;;;;;;;;2080652;28;20061;-70
2023/01/13 04:27:28;;;;;;;8.07;2.75;;;;;;;;;;2079980;28;20037;-70
2023/01/13 04:28:47;;;;;;;6.68;2.38;;;;;;;;;;2078230;28;20414;-71
2023/01/13 04:30:07;;;;;;;5.10;3.03;;;;;;;;;;2079558;28;20033;-70
2023/01/13 04:31:26;;;;;;;6.85;3.00;;;;;;;;;;2079640;28;20021;-70
2023/01/13 04:32:45;;;;;;;6.93;2.70;;;;;;;;;;2078006;28;20021;-70
2023/01/13 04:34:04;;;;;;;9.27;2.42;;;;;;;;;;2076737;28;20241;-72
2023/01/13 04:35:23;;;;;;;5.97;2.72;;;;;;;;;;2077179;28;20021;-70
2023/01/13 04:36:43;;;;;;;5.47;2.30;;;;;;;;;;2077878;28;20026;-70
2023/01/13 04:38:05;;;;;;;8.07;2.92;;;;;;;;;;2080092;28;20034;-71
2023/01/13 04:39:23;;;;;;;8.02;2.85;;;;;;;;;;2081183;28;20038;-71
2023/01/13 04:40:43;;;;;;;6.45;2.38;;;;;;;;;;2080185;28;20026;-71
2023/01/13 04:42:01;;;;;;;8.30;2.58;;;;;;;;;;2078195;28;20069;-71
2023/01/13 04:43:20;;;;;;;6.68;2.53;;;;;;;;;;2080182;28;20041;-71
2023/01/13 04:44:39;;;;;;;7.13;2.60;;;;;;;;;;2080375;28;20017;-71
2023/01/13 04:45:58;;;;;;;7.70;2.80;;;;;;;;;;2079819;28;20033;-71
2023/01/13 04:47:17;;;;;;;7.38;2.60;;;;;;;;;;2080633;28;20030;-71
2023/01/13 04:48:35;;;;;;;7.05;2.80;;;;;;;;;;2079614;28;20029;-71
2023/01/13 04:49:54;;;;;;;7.30;2.50;;;;;;;;;;2077138;28;20037;-71
2023/01/13 04:51:13;;;;;;;6.10;2.38;;;;;;;;;;2078125;28;20034;-70
2023/01/13 04:52:32;;;;;;;5.70;2.22;;;;;;;;;;2079471;28;20025;-71
2023/01/13 04:53:51;;;;;;;7.10;2.22;;;;;;;;;;2077622;28;20038;-71
2023/01/13 04:55:10;;;;;;;9.82;2.17;;;;;;;;;;2077133;28;20100;-73
2023/01/13 04:56:29;;;;;;;7.43;2.25;;;;;;;;;;2077586;28;20422;-72
2023/01/13 04:57:48;;;;;;;5.43;2.47;;;;;;;;;;2078436;28;20116;-71
2023/01/13 04:59:08;;;;;;;6.47;2.40;;;;;;;;;;2078444;28;20041;-72
2023/01/13 05:00:27;;;;;;;4.85;2.38;;;;;;;;;;2076617;28;20037;-71
2023/01/13 05:01:47;;;;;;;3.97;2.20;;;;;;;;;;2076928;28;20029;-72
2023/01/13 05:03:06;;;;;;;9.25;2.60;;;;;;;;;;2075814;28;20033;-71
2023/01/13 05:04:24;;;;;;;7.55;2.80;;;;;;;;;;2077031;28;20037;-71
2023/01/13 05:05:43;;;;;;;8.93;2.50;;;;;;;;;;2077361;28;20034;-71
2023/01/13 05:07:02;;;;;;;5.63;2.65;;;;;;;;;;2075997;28;20408;-71
2023/01/13 05:08:21;;;;;;;5.88;2.53;;;;;;;;;;2078187;28;20037;-71
2023/01/13 05:09:41;;;;;;;5.28;2.92;;;;;;;;;;2077912;28;20116;-71
2023/01/13 05:11:00;;;;;;;5.03;2.47;;;;;;;;;;2078445;28;20038;-70
2023/01/13 05:17:17;;;;;;;6.65;2.72;;;;;;;;;;2078723;28;20072;-71
2023/01/13 05:18:35;;;;;;;;;;;;;;;;;;2080040;28;20037;-70
2023/01/13 05:19:55;;;;;;;8.45;2.50;;;;;;;;;;2077825;28;19905;-70
2023/01/13 05:26:07;;;;;;;5.75;2.60;;;;;;;;;;2077295;28;20029;-70
2023/01/13 05:27:26;;;;;;;5.50;3.00;;;;;;;;;;2077564;28;20033;-70
2023/01/13 05:28:45;;;;;;;7.28;3.22;;;;;;;;;;2077652;28;20049;-70
2023/01/13 05:30:04;;;;;;;5.72;3.03;;;;;;;;;;2075147;28;20035;-70
2023/01/13 05:31:23;;;;;;;3.17;2.55;;;;;;;;;;2079561;28;20057;-71
2023/01/13 05:32:42;;;;;;;7.20;3.67;;;;;;;;;;2079557;28;20029;-70
2023/01/13 05:34:01;;;;;;;5.05;3.08;;;;;;;;;;2079463;28;20033;-70
2023/01/13 05:35:21;;;;;;;5.93;3.30;;;;;;;;;;2078091;28;20751;-70
2023/01/13 05:36:40;;;;;;;6.75;3.45;;;;;;;;;;2076926;28;20037;-71
2023/01/13 05:37:59;;;;;;;4.38;3.80;;;;;;;;;;2077115;28;20029;-70
2023/01/13 05:39:18;;;;;;;4.60;3.47;;;;;;;;;;2080179;28;20034;-70
2023/01/13 05:43:53;;;;;;;5.20;4.20;;;;;;;;;;2077484;28;20026;-70
2023/01/13 05:45:12;;;;;;;6.57;4.50;;;;;;;;;;2077187;28;20029;-70
2023/01/13 05:46:31;;;;;;;5.35;3.97;;;;;;;;;;2075812;28;20123;-69
2023/01/13 05:47:50;;;;;;;8.18;4.55;;;;;;;;;;2076679;28;20056;-70
2023/01/13 05:49:09;;;;;;;7.88;4.18;;;;;;;;;;2079952;28;20029;-70
2023/01/13 05:50:28;;;;;;;6.85;4.22;;;;;;;;;;2077388;28;20030;-72
2023/01/13 05:51:47;;;;;;;4.75;4.28;;;;;;;;;;2078921;28;20033;-67
2023/01/13 05:53:06;;;;;;;9.20;4.18;;;;;;;;;;2078700;28;20030;-69
2023/01/13 05:54:25;;;;;;;8.40;4.47;;;;;;;;;;2080343;28;20029;-70
2023/01/13 05:55:44;;;;;;;8.38;4.65;;;;;;;;;;2077535;28;20025;-69
2023/01/13 05:57:03;;;;;;;5.80;4.40;;;;;;;;;;2077007;28;20393;-69
2023/01/13 05:58:23;;;;;;;5.40;3.90;;;;;;;;;;2078553;28;20037;-69
2023/01/13 05:59:42;;;;;;;8.93;4.55;;;;;;;;;;2078956;28;20033;-69
2023/01/13 06:01:02;;;;;;;5.32;4.07;;;;;;;;;;2077862;28;20038;-69
2023/01/13 06:02:22;;;;;;;6.97;4.55;;;;;;;;;;2077015;28;20042;-69
2023/01/13 06:03:41;;;;;;;6.22;4.50;;;;;;;;;;2076486;28;20549;-69
2023/01/13 06:05:00;;;;;;;5.32;4.50;;;;;;;;;;2079166;28;20124;-69
2023/01/13 06:06:19;;;;;;;8.90;5.35;;;;;;;;;;2080762;28;20434;-69
2023/01/13 06:07:38;;;;;;;7.95;4.40;;;;;;;;;;2077645;28;20041;-70
2023/01/13 06:08:57;;;;;;;9.85;4.75;;;;;;;;;;2077963;28;20029;-69
2023/01/13 06:10:16;;;;;;;5.65;4.43;;;;;;;;;;2077880;28;20029;-69
2023/01/13 06:11:35;;;;;;;9.20;4.40;;;;;;;;;;2077729;28;20046;-69
2023/01/13 06:12:54;;;;;;;10.43;4.95;;;;;;;;;;2077739;28;20037;-69
2023/01/13 06:14:13;;;;;;;6.55;4.80;;;;;;;;;;2077426;28;20029;-69
2023/01/13 06:15:32;;;;;;;6.57;4.63;;;;;;;;;;2077618;28;20053;-69
2023/01/13 06:16:51;;;;;;;8.30;5.38;;;;;;;;;;2076865;28;20061;-68
2023/01/13 06:18:10;;;;;;;11.27;5.63;;;;;;;;;;2077481;28;20033;-72
2023/01/13 06:19:28;;;;;;;10.88;4.85;;;;;;;;;;2079301;28;20037;-69
2023/01/13 06:20:48;;;;;;;8.45;5.75;;;;;;;;;;2079241;28;20038;-69
2023/01/13 06:22:10;;;;;;;8.55;5.50;;;;;;;;;;2078495;28;20033;-69
2023/01/13 06:23:33;;;;;;;14.50;6.85;;;;;;;;;;2076135;28;20498;-69
2023/01/13 06:24:53;;;;;;;13.30;6.03;;;;;;;;;;2077836;28;20429;-69
2023/01/13 06:26:14;;;;;;;16.00;6.82;;;;;;;;;;2076572;28;20534;-70
2023/01/13 06:27:33;;;;;;;18.13;8.70;;;;;;;;;;2077071;28;20033;-70
2023/01/13 06:28:53;;;;;;;18.92;7.35;;;;;;;;;;2077299;28;20029;-69
2023/01/13 06:30:12;;;;;;;10.70;5.88;;;;;;;;;;2076711;28;20041;-70
2023/01/13 06:31:32;;;;;;;12.85;6.25;;;;;;;;;;2076497;28;20033;-70
2023/01/13 06:32:53;;;;;;;15.40;7.00;;;;;;;;;;2077185;28;20034;-70
2023/01/13 06:34:13;;;;;;;10.90;5.80;;;;;;;;;;2076709;28;20065;-70
2023/01/13 06:35:34;;;;;;;14.85;7.45;;;;;;;;;;2076400;28;20052;-70
2023/01/13 06:36:54;;;;;;;14.90;7.40;;;;;;;;;;2076344;28;20029;-70
2023/01/13 06:38:16;;;;;;;14.57;6.60;;;;;;;;;;2077683;28;20385;-70
2023/01/13 06:39:35;;;;;;;13.45;7.03;;;;;;;;;;2077061;28;20425;-70
2023/01/13 06:40:54;;;;;;;10.65;6.82;;;;;;;;;;2079884;28;20033;-70
2023/01/13 06:43:51;;;;;;;12.80;7.50;;;;;;;;;;2078221;28;20402;-70
2023/01/13 06:45:10;;;;;;;16.15;7.90;;;;;;;;;;2076323;28;20462;-70
2023/01/13 06:46:29;;;;;;;16.92;7.90;;;;;;;;;;2077858;28;20060;-70
2023/01/13 06:47:48;;;;;;;14.90;8.00;;;;;;;;;;2076535;28;20025;-69
2023/01/13 06:49:08;;;;;;;16.23;8.18;;;;;;;;;;2075464;28;20038;-70
2023/01/13 06:50:27;;;;;;;16.63;8.27;;;;;;;;;;2076842;28;20029;-70
2023/01/13 06:51:46;;;;;;;18.77;8.68;;;;;;;;;;2076842;28;20038;-70
2023/01/13 06:53:05;;;;;;;19.23;8.32;;;;;;;;;;2076906;28;20406;-70
2023/01/13 06:54:24;;;;;;;23.85;12.98;;;;;;;;;;2078043;28;20037;-70
2023/01/13 06:55:43;;;;;;;14.45;9.18;;;;;;;;;;2076898;28;20037;-70
2023/01/13 06:57:02;;;;;;;19.80;9.60;;;;;;;;;;2077172;28;20064;-70
2023/01/13 06:58:21;;;;;;;16.90;9.57;;;;;;;;;;2075861;28;20037;-70
2023/01/13 06:59:40;;;;;;;18.38;8.52;;;;;;;;;;2074851;28;20029;-70
2023/01/13 07:01:00;;;;;;;13.73;7.78;;;;;;;;;;2074536;28;20037;-70
2023/01/13 07:02:19;;;;;;;13.00;7.70;;;;;;;;;;2074460;28;20150;-70
2023/01/13 07:03:38;;;;;;;11.80;7.20;;;;;;;;;;2074417;28;20033;-70
2023/01/13 07:04:57;;;;;;;11.90;6.78;;;;;;;;;;2076879;28;20109;-70
2023/01/13 07:06:17;;;;;;;10.18;7.30;;;;;;;;;;2077282;28;20037;-70
2023/01/13 07:07:36;;;;;;;12.65;7.00;;;;;;;;;;2076895;28;20033;-70
2023/01/13 07:08:54;;;;;;;11.63;6.85;;;;;;;;;;2076201;28;20033;-71
2023/01/13 07:10:20;;;;;;;14.13;7.68;;;;;;;;;;2078043;28;20038;-70
2023/01/13 07:11:39;;;;;;;13.55;7.25;;;;;;;;;;2076295;28;20084;-70
2023/01/13 07:16:15;;;;;;;13.15;7.43;;;;;;;;;;2076872;28;20157;-70
2023/01/13 07:17:34;;;;;;;17.33;7.75;;;;;;;;;;2076992;28;20029;-70
2023/01/13 07:18:53;;;;;;;10.80;7.22;;;;;;;;;;2075880;28;20026;-70
2023/01/13 07:20:12;;;;;;;15.77;7.45;;;;;;;;;;2076550;28;20033;-69
2023/01/13 07:21:31;;;;;;;10.75;7.13;;;;;;;;;;2079187;28;20037;-70
2023/01/13 07:22:53;;;;;;;13.85;7.35;;;;;;;;;;2074422;28;20514;-70
2023/01/13 07:24:13;;;;;;;12.80;7.50;;;;;;;;;;2075592;28;20390;-70
2023/01/13 07:25:32;;;;;;;10.23;7.22;;;;;;;;;;2072394;28;20513;-70
2023/01/13 07:26:51;;;;;;;13.38;8.30;;;;;;;;;;2075979;28;20050;-70
2023/01/13 07:28:10;;;;;;;11.57;7.50;;;;;;;;;;2071749;28;20033;-70
2023/01/13 07:29:29;;;;;;;14.15;8.70;;;;;;;;;;2075764;28;20045;-70
2023/01/13 07:30:48;;;;;;;10.48;7.63;;;;;;;;;;2075168;28;20034;-69
2023/01/13 07:32:07;;;;;;;10.45;7.60;;;;;;;;;;2073950;28;20037;-70
2023/01/13 07:33:26;;;;;;;14.70;8.02;;;;;;;;;;2077960;28;20034;-69
2023/01/13 07:34:45;;;;;;;15.55;8.20;;;;;;;;;;2073025;28;20033;-69
2023/01/13 07:36:04;;;;;;;14.18;7.70;;;;;;;;;;2075891;28;20487;-70
2023/01/13 07:37:23;;;;;;;14.20;8.23;;;;;;;;;;2076493;28;20350;-72
2023/01/13 07:38:43;;;;;;;10.55;7.60;;;;;;;;;;2073554;28;20035;-70
2023/01/13 07:40:02;;;;;;;23.65;8.27;;;;;;;;;;2079088;28;20390;-70
2023/01/13 07:44:37;;;;;;;9.63;7.05;;;;;;;;;;2075554;28;20479;-69
2023/01/13 07:45:59;;;;;;;9.32;5.97;;;;;;;;;;2074925;28;20029;-69
2023/01/13 07:47:22;;;;;;;7.70;5.70;;;;;;;;;;2078690;28;20046;-70
2023/01/13 07:48:41;;;;;;;9.10;5.77;;;;;;;;;;2075023;28;20030;-69
2023/01/13 07:49:59;;;;;;;9.38;6.03;;;;;;;;;;2077777;28;20764;-70
2023/01/13 07:51:18;;;;;;;9.45;5.75;;;;;;;;;;2078402;28;20037;-70
2023/01/13 07:52:38;;;;;;;11.77;6.00;;;;;;;;;;2073759;28;20626;-70
2023/01/13 07:53:57;;;;;;;8.55;5.20;;;;;;;;;;2075232;28;20058;-69
2023/01/13 07:55:15;;;;;;;9.40;5.63;;;;;;;;;;2078338;28;20426;-70
2023/01/13 07:56:34;;;;;;;7.30;5.47;;;;;;;;;;2076198;28;20121;-69
2023/01/13 07:57:53;;;;;;;9.13;5.30;;;;;;;;;;2078918;28;20061;-70
2023/01/13 07:59:12;;;;;;;10.10;5.22;;;;;;;;;;2077352;28;20033;-70
2023/01/13 08:00:31;;;;;;;8.52;5.22;;;;;;;;;;2076795;28;20029;-69
2023/01/13 08:01:51;;;;;;;10.30;5.47;;;;;;;;;;2076258;28;20412;-70
2023/01/13 08:03:10;;;;;;;7.90;4.55;;;;;;;;;;2076378;28;20493;-69
2023/01/13 08:04:29;;;;;;;7.93;5.22;;;;;;;;;;2077826;28;20475;-70
2023/01/13 08:05:48;;;;;;;5.28;4.63;;;;;;;;;;2078036;28;20164;-69
2023/01/13 08:07:07;;;;;;;8.70;4.95;;;;;;;;;;2075151;28;20456;-70
2023/01/13 08:08:26;;;;;;;9.27;4.68;;;;;;;;;;2074610;28;20405;-69
2023/01/13 08:09:45;;;;;;;7.55;4.80;;;;;;;;;;2076289;28;20143;-69
2023/01/13 08:11:05;;;;;;;10.98;4.43;;;;;;;;;;2073793;28;20112;-69
2023/01/13 08:14:02;;;;;;;5.75;4.60;;;;;;;;;;2076190;28;20026;-69
2023/01/13 08:15:21;;;;;;;7.00;4.50;;;;;;;;;;2076855;28;20038;-71
2023/01/13 08:16:40;;;;;;;6.78;4.20;;;;;;;;;;2075191;28;20431;-69
2023/01/13 08:17:58;;;;;;;7.40;4.18;;;;;;;;;;2076253;28;20046;-69
2023/01/13 08:19:17;;;;;;;5.45;4.10;;;;;;;;;;2077546;28;20037;-69
2023/01/13 08:20:36;;;;;;;4.85;4.35;;;;;;;;;;2086687;28;20112;-69
2023/01/13 08:21:55;;;;;;;6.85;4.75;;;;;;;;;;2081078;28;20248;-70
2023/01/13 08:23:14;;;;;;;8.75;4.20;;;;;;;;;;2079331;28;20038;-70
2023/01/13 08:24:33;;;;;;;12.02;4.82;;;;;;;;;;2075971;28;20026;-70
2023/01/13 08:25:52;;;;;;;12.68;4.97;;;;;;;;;;2080275;28;20064;-70
2023/01/13 08:27:11;;;;;;;7.68;3.90;;;;;;;;;;2080637;28;20038;-70
2023/01/13 08:28:30;;;;;;;6.20;4.05;;;;;;;;;;2076206;28;20133;-69
2023/01/13 08:29:49;;;;;;;9.35;4.00;;;;;;;;;;2078428;28;20060;-70
2023/01/13 08:31:12;;;;;;;6.03;4.35;;;;;;;;;;2079052;28;20029;-69
2023/01/13 08:32:31;;;;;;;9.80;4.20;;;;;;;;;;2077846;28;20494;-70
2023/01/13 08:33:50;;;;;;;13.90;3.75;;;;;;;;;;2079369;28;20025;-69
2023/01/13 08:35:09;;;;;;;7.15;4.13;;;;;;;;;;2080032;28;20109;-70
2023/01/13 08:36:28;;;;;;;6.35;3.65;;;;;;;;;;2078135;28;20116;-70
2023/01/13 08:37:47;;;;;;;4.68;3.83;;;;;;;;;;2080087;28;20112;-70
2023/01/13 08:39:06;;;;;;;4.13;3.72;;;;;;;;;;2078696;28;20038;-69
2023/01/13 08:40:25;;;;;;;4.55;3.63;;;;;;;;;;2077735;28;20399;-70